Time;durP1;ratioP1;P1;durP2;ratioP2;P2;SDS_P1;SDS_P2;PMS_P1;PMS_P2;Temp;Humidity;BMP_temperature;BMP_pressure;BME280_temperature;BME280_humidity;BME280_pressure;Samples;Min_cycle;Max_cycle;Signal;HPM_P1;HPM_P2
2022/03/04 00:01:24;;;;;;;10.93;7.90;;;10.30;1.00;;;;;;5076102;28;20206;-78
2022/03/04 00:03:51;;;;;;;9.90;7.27;;;10.20;1.00;;;;;;5076144;28;20232;-75
2022/03/04 00:06:18;;;;;;;9.13;8.10;;;10.30;1.00;;;;;;5076134;28;20327;-75
2022/03/04 00:08:47;;;;;;;8.43;6.90;;;10.30;1.00;;;;;;5075906;28;20230;-78
2022/03/04 00:11:14;;;;;;;7.87;6.30;;;10.40;1.00;;;;;;5076418;28;20206;-77
2022/03/04 00:13:41;;;;;;;9.00;7.20;;;10.50;1.00;;;;;;5075814;28;20206;-77
2022/03/04 00:16:08;;;;;;;11.07;6.23;;;10.50;1.00;;;;;;5076996;28;20202;-77
2022/03/04 00:18:35;;;;;;;8.97;7.37;;;10.60;1.00;;;;;;5076582;28;20217;-78
2022/03/04 00:21:03;;;;;;;6.70;5.90;;;10.60;1.00;;;;;;5072257;28;20685;-78
2022/03/04 00:23:30;;;;;;;7.37;6.67;;;10.70;1.00;;;;;;5073835;28;20212;-78
2022/03/04 00:25:59;;;;;;;7.50;5.57;;;10.60;1.00;;;;;;5072884;28;20263;-78
2022/03/04 00:28:26;;;;;;;6.93;5.33;;;10.60;1.00;;;;;;5073202;28;20226;-78
2022/03/04 00:30:53;;;;;;;6.10;5.50;;;10.70;1.00;;;;;;5072359;28;20206;-76
2022/03/04 00:33:20;;;;;;;8.00;5.00;;;10.70;1.00;;;;;;5073118;28;20256;-75
2022/03/04 00:35:47;;;;;;;7.67;5.90;;;10.70;1.00;;;;;;5072606;28;20210;-76
2022/03/04 00:38:14;;;;;;;5.83;4.77;;;10.80;1.00;;;;;;5072925;28;20259;-76
2022/03/04 00:40:41;;;;;;;6.07;4.63;;;10.90;1.00;;;;;;5072156;28;20252;-76
2022/03/04 00:43:09;;;;;;;10.33;4.60;;;10.90;1.00;;;;;;5073224;28;20206;-76
2022/03/04 00:45:37;;;;;;;4.70;4.20;;;10.90;1.00;;;;;;5072994;28;20214;-78
2022/03/04 00:48:04;;;;;;;4.88;3.88;;;10.90;2.00;;;;;;5073044;28;20214;-77
2022/03/04 00:50:31;;;;;;;5.83;4.27;;;10.90;1.90;;;;;;5072522;28;20202;-78
2022/03/04 00:52:58;;;;;;;5.67;3.13;;;10.90;3.50;;;;;;5072181;28;20202;-78
2022/03/04 00:55:25;;;;;;;3.85;3.25;;;11.00;18.10;;;;;;5072418;28;20214;-77
2022/03/04 00:57:52;;;;;;;3.50;2.73;;;11.00;5.90;;;;;;5073009;28;20233;-77
2022/03/04 01:00:21;;;;;;;3.00;2.70;;;11.00;7.40;;;;;;5072485;28;20206;-77
2022/03/04 01:02:48;;;;;;;4.47;3.10;;;11.00;7.50;;;;;;5072086;28;20210;-76
2022/03/04 01:05:14;;;;;;;3.93;2.57;;;11.00;9.30;;;;;;5072307;28;20198;-77
2022/03/04 01:07:42;;;;;;;3.33;2.78;;;11.00;11.00;;;;;;5071997;28;20206;-76
2022/03/04 01:10:10;;;;;;;3.90;2.83;;;11.00;11.40;;;;;;5072111;28;20225;-74
2022/03/04 01:12:37;;;;;;;3.63;2.90;;;11.00;12.60;;;;;;5073086;28;20577;-76
2022/03/04 01:15:04;;;;;;;4.20;3.00;;;11.10;13.40;;;;;;5071722;28;20202;-77
2022/03/04 01:17:33;;;;;;;4.73;3.40;;;11.10;14.80;;;;;;5072131;28;20206;-76
2022/03/04 01:20:00;;;;;;;3.38;2.72;;;11.10;15.60;;;;;;5071766;28;20620;-77
2022/03/04 01:22:27;;;;;;;4.18;3.60;;;11.10;16.10;;;;;;5071797;28;20731;-76
2022/03/04 01:24:54;;;;;;;3.92;3.28;;;11.10;16.80;;;;;;5071494;28;20206;-74
2022/03/04 01:27:21;;;;;;;5.27;2.93;;;11.10;16.90;;;;;;5071946;28;20202;-74
2022/03/04 01:29:48;;;;;;;3.92;2.67;;;11.10;78.70;;;;;;5071724;28;20233;-73
2022/03/04 01:32:15;;;;;;;4.03;3.10;;;11.10;57.60;;;;;;5070884;28;20260;-73
2022/03/04 01:34:43;;;;;;;3.67;2.87;;;11.20;86.20;;;;;;5071376;28;20289;-73
2022/03/04 01:37:10;;;;;;;4.60;3.37;;;11.10;68.70;;;;;;5071832;28;20207;-73
2022/03/04 01:39:38;;;;;;;4.32;3.03;;;11.10;73.80;;;;;;5072173;28;20206;-74
2022/03/04 01:42:06;;;;;;;3.90;3.23;;;11.10;73.10;;;;;;5071947;28;20206;-73
2022/03/04 01:44:32;;;;;;;4.07;3.50;;;11.20;72.40;;;;;;5071936;28;20206;-75
2022/03/04 01:47:00;;;;;;;4.30;3.47;;;11.10;99.90;;;;;;5071167;28;20248;-74
2022/03/04 01:49:26;;;;;;;3.70;3.30;;;11.10;99.90;;;;;;5071457;28;20234;-74
2022/03/04 01:51:55;;;;;;;4.65;3.75;;;11.10;99.90;;;;;;5071279;28;20202;-74
2022/03/04 01:54:22;;;;;;;4.25;3.33;;;11.10;99.90;;;;;;5073140;28;20198;-74
2022/03/04 01:56:49;;;;;;;4.93;3.83;;;11.10;99.90;;;;;;5069687;28;20202;-74
2022/03/04 01:59:16;;;;;;;5.23;4.00;;;11.10;99.90;;;;;;5071083;28;20206;-75
2022/03/04 02:01:43;;;;;;;4.93;4.03;;;11.10;99.90;;;;;;5070911;28;20214;-75
2022/03/04 02:04:10;;;;;;;3.60;3.13;;;11.10;99.90;;;;;;5071708;28;20305;-76
2022/03/04 02:06:37;;;;;;;4.50;4.03;;;11.10;99.90;;;;;;5070712;28;20670;-75
2022/03/04 02:09:06;;;;;;;5.17;3.40;;;11.10;99.90;;;;;;5070665;28;20221;-74
2022/03/04 02:11:33;;;;;;;4.77;3.70;;;11.10;99.90;;;;;;5071293;28;20198;-74
2022/03/04 02:13:59;;;;;;;4.50;3.93;;;11.10;99.90;;;;;;5070478;28;20567;-77
2022/03/04 02:16:32;;;;;;;5.53;4.37;;;11.10;99.90;;;;;;5070320;28;20194;-76
2022/03/04 02:18:59;;;;;;;4.55;4.15;;;11.10;99.90;;;;;;5070267;28;20202;-76
2022/03/04 02:21:28;;;;;;;4.83;3.93;;;11.00;99.90;;;;;;5071007;28;20206;-75
2022/03/04 02:23:56;;;;;;;3.20;2.90;;;11.00;99.90;;;;;;5069746;28;20252;-75
2022/03/04 02:26:23;;;;;;;3.43;2.67;;;11.00;99.90;;;;;;5070343;28;20202;-75
2022/03/04 02:28:50;;;;;;;4.50;2.10;;;11.00;99.90;;;;;;5070238;28;20343;-75
2022/03/04 02:31:19;;;;;;;3.13;2.93;;;11.00;99.90;;;;;;5070610;28;20237;-75
2022/03/04 02:33:47;;;;;;;2.43;1.90;;;11.00;99.90;;;;;;5070770;28;20271;-75
2022/03/04 02:36:15;;;;;;;1.87;1.67;;;11.00;99.90;;;;;;5070362;28;20199;-74
2022/03/04 02:38:42;;;;;;;1.70;1.60;;;11.00;99.90;;;;;;5069804;28;20252;-75
2022/03/04 02:41:10;;;;;;;1.40;1.30;;;11.00;99.90;;;;;;5070550;28;20206;-75
2022/03/04 02:43:37;;;;;;;1.85;1.40;;;10.90;99.90;;;;;;5070448;28;20678;-76
2022/03/04 02:46:04;;;;;;;0.90;0.70;;;10.90;99.90;;;;;;5070291;28;20202;-76
2022/03/04 02:48:31;;;;;;;1.20;1.10;;;10.90;99.90;;;;;;5070996;28;20737;-75
2022/03/04 02:50:58;;;;;;;1.57;1.03;;;11.00;99.90;;;;;;5070424;28;20214;-75
2022/03/04 02:53:25;;;;;;;0.97;0.87;;;10.90;99.90;;;;;;5070138;28;20257;-75
2022/03/04 02:55:52;;;;;;;1.40;0.87;;;10.80;99.90;;;;;;5069808;28;20252;-75
2022/03/04 02:58:21;;;;;;;1.10;1.10;;;10.90;99.90;;;;;;5070747;28;20198;-75
2022/03/04 03:00:48;;;;;;;2.65;1.05;;;10.90;99.90;;;;;;5069945;28;20267;-76
2022/03/04 03:03:15;;;;;;;2.50;1.30;;;10.80;99.90;;;;;;5070499;28;20206;-76
2022/03/04 03:05:42;;;;;;;1.43;1.20;;;10.80;99.90;;;;;;5069922;28;20205;-75
2022/03/04 03:08:09;;;;;;;1.87;1.20;;;10.80;99.90;;;;;;5070680;28;20279;-75
2022/03/04 03:10:36;;;;;;;1.52;1.17;;;10.80;99.90;;;;;;5070408;28;20230;-76
2022/03/04 03:13:04;;;;;;;1.30;1.20;;;10.80;99.90;;;;;;5070656;28;20241;-74
2022/03/04 03:15:33;;;;;;;2.70;1.40;;;10.80;99.90;;;;;;5070467;28;20248;-74
2022/03/04 03:18:00;;;;;;;1.55;1.45;;;10.80;99.90;;;;;;5070508;28;20269;-76
2022/03/04 03:20:27;;;;;;;2.23;1.27;;;10.80;99.90;;;;;;5069825;28;20210;-77
2022/03/04 03:22:54;;;;;;;1.70;1.23;;;10.80;99.90;;;;;;5069962;28;20206;-75
2022/03/04 03:25:21;;;;;;;2.07;1.03;;;10.80;99.90;;;;;;5069717;28;20640;-75
2022/03/04 03:27:48;;;;;;;2.93;1.20;;;10.80;1.00;;;;;;5070010;28;20202;-75
2022/03/04 03:30:15;;;;;;;1.13;1.03;;;10.80;99.90;;;;;;5070087;28;20245;-77
2022/03/04 03:32:43;;;;;;;0.93;0.83;;;10.80;99.90;;;;;;5070272;28;20252;-75
2022/03/04 03:35:10;;;;;;;0.73;0.57;;;10.80;99.90;;;;;;5069783;28;20736;-75
2022/03/04 03:37:38;;;;;;;1.67;0.60;;;10.80;99.90;;;;;;5070238;28;20198;-74
2022/03/04 03:40:08;;;;;;;0.90;0.80;;;10.80;99.90;;;;;;5069692;28;20568;-74
2022/03/04 03:42:35;;;;;;;0.57;0.57;;;10.80;99.90;;;;;;5069981;28;20206;-74
2022/03/04 03:45:02;;;;;;;1.40;0.70;;;10.80;99.90;;;;;;5069980;28;20202;-73
2022/03/04 03:47:29;;;;;;;1.67;0.50;;;10.80;99.90;;;;;;5070624;28;20232;-74
2022/03/04 03:49:57;;;;;;;0.65;0.50;;;10.80;99.90;;;;;;5068834;28;20226;-74
2022/03/04 03:52:24;;;;;;;0.90;0.70;;;10.80;99.90;;;;;;5070323;28;20203;-74
2022/03/04 03:54:51;;;;;;;0.80;0.60;;;10.70;99.90;;;;;;5069804;28;20206;-74
2022/03/04 03:57:19;;;;;;;1.27;0.90;;;10.80;99.90;;;;;;5073184;28;20206;-74
2022/03/04 03:59:46;;;;;;;2.07;0.80;;;10.70;99.90;;;;;;5073517;28;20199;-74
2022/03/04 04:02:12;;;;;;;2.43;0.83;;;10.70;98.20;;;;;;5073053;28;20685;-74
2022/03/04 04:04:41;;;;;;;2.10;0.77;;;10.70;96.70;;;;;;5073970;28;20256;-74
2022/03/04 04:07:11;;;;;;;1.57;0.90;;;10.70;99.90;;;;;;5073488;28;20289;-74
2022/03/04 04:09:38;;;;;;;1.40;1.10;;;10.70;99.90;;;;;;5073328;28;20226;-74
2022/03/04 04:12:06;;;;;;;1.13;0.97;;;10.70;99.90;;;;;;5072983;28;20202;-74
2022/03/04 04:14:34;;;;;;;1.10;0.93;;;10.60;99.90;;;;;;5073855;28;20578;-74
2022/03/04 04:17:01;;;;;;;2.67;1.60;;;10.60;99.90;;;;;;5072797;28;20206;-74
2022/03/04 04:19:28;;;;;;;0.80;0.80;;;10.60;99.90;;;;;;5072829;28;20218;-74
2022/03/04 04:21:55;;;;;;;2.17;0.87;;;10.60;99.90;;;;;;5073091;28;20202;-74
2022/03/04 04:24:24;;;;;;;1.50;1.40;;;10.60;99.90;;;;;;5073318;28;20665;-74
2022/03/04 04:26:51;;;;;;;1.23;1.13;;;10.60;99.90;;;;;;5072439;28;20244;-74
2022/03/04 04:29:18;;;;;;;1.50;1.00;;;10.60;99.90;;;;;;5073003;28;20678;-74
2022/03/04 04:31:45;;;;;;;1.60;1.40;;;10.60;99.90;;;;;;5072016;28;20206;-75
2022/03/04 04:34:12;;;;;;;1.97;1.80;;;10.70;99.90;;;;;;5073405;28;20206;-75
2022/03/04 04:36:39;;;;;;;2.40;2.00;;;10.70;99.90;;;;;;5073003;28;20560;-75
2022/03/04 04:39:06;;;;;;;2.53;2.33;;;10.70;99.90;;;;;;5073261;28;20210;-75
2022/03/04 04:41:35;;;;;;;5.33;3.57;;;10.70;99.90;;;;;;5072924;28;20259;-76
2022/03/04 04:44:02;;;;;;;4.37;3.97;;;10.70;99.90;;;;;;5072350;28;20238;-75
2022/03/04 04:46:29;;;;;;;5.80;5.23;;;10.70;99.90;;;;;;5072058;28;20202;-75
2022/03/04 04:48:56;;;;;;;6.17;5.57;;;10.70;99.90;;;;;;5072589;28;20202;-76
2022/03/04 04:51:23;;;;;;;6.80;4.70;;;10.70;99.90;;;;;;5073056;28;20225;-76
2022/03/04 04:53:52;;;;;;;6.90;4.83;;;10.60;99.90;;;;;;5072507;28;20206;-74
2022/03/04 04:56:19;;;;;;;5.50;4.87;;;10.60;99.90;;;;;;5072699;28;20203;-77
2022/03/04 04:58:47;;;;;;;6.47;5.83;;;10.60;99.90;;;;;;5071802;28;20206;-75
2022/03/04 05:01:15;;;;;;;6.00;4.77;;;10.70;99.90;;;;;;5072641;28;20217;-74
2022/03/04 05:03:43;;;;;;;6.10;5.00;;;10.70;99.90;;;;;;5071794;28;20678;-74
2022/03/04 05:06:10;;;;;;;7.13;4.90;;;10.70;99.90;;;;;;5072058;28;20202;-75
2022/03/04 05:08:37;;;;;;;6.80;5.90;;;10.70;99.90;;;;;;5072414;28;20206;-76
2022/03/04 05:11:04;;;;;;;6.27;5.60;;;10.70;99.90;;;;;;5071629;28;20271;-76
2022/03/04 05:13:31;;;;;;;9.33;5.43;;;10.70;99.90;;;;;;5071992;28;20202;-75
2022/03/04 05:15:59;;;;;;;7.20;6.07;;;10.70;99.90;;;;;;5072021;28;20202;-76
2022/03/04 05:18:26;;;;;;;6.97;5.93;;;10.60;99.90;;;;;;5071607;28;20194;-76
2022/03/04 05:20:53;;;;;;;5.97;5.40;;;10.60;99.90;;;;;;5071868;28;20198;-74
2022/03/04 05:26:01;;;;;;;6.83;6.13;;;10.60;99.90;;;;;;5072636;28;20591;-73
2022/03/04 05:28:28;;;;;;;6.10;5.50;;;10.60;99.90;;;;;;5072045;28;20255;-73
2022/03/04 05:30:55;;;;;;;6.10;5.10;;;10.50;99.90;;;;;;5079768;28;20233;-74
2022/03/04 05:33:23;;;;;;;6.87;5.80;;;10.50;99.90;;;;;;5078356;28;20206;-74
2022/03/04 05:35:50;;;;;;;6.43;5.80;;;10.50;99.90;;;;;;5083944;28;20235;-74
2022/03/04 05:38:17;;;;;;;6.40;4.97;;;10.50;99.90;;;;;;5086775;28;20205;-73
2022/03/04 05:40:44;;;;;;;6.10;5.50;;;10.50;99.90;;;;;;5082645;28;20202;-74
2022/03/04 05:43:11;;;;;;;7.67;5.70;;;10.50;99.90;;;;;;5071306;28;20206;-72
2022/03/04 05:45:38;;;;;;;5.43;4.83;;;10.50;99.90;;;;;;5087545;28;20255;-75
2022/03/04 05:48:06;;;;;;;7.23;5.37;;;10.60;99.90;;;;;;5079700;28;20242;-75
2022/03/04 05:50:34;;;;;;;6.57;5.40;;;10.60;99.90;;;;;;5083629;28;20740;-75
2022/03/04 05:53:02;;;;;;;6.47;5.87;;;10.50;99.90;;;;;;5071826;28;20662;-74
2022/03/04 05:55:28;;;;;;;6.07;5.07;;;10.50;99.90;;;;;;5089906;28;20262;-75
2022/03/04 05:57:55;;;;;;;5.50;5.00;;;10.60;99.90;;;;;;5083284;28;20669;-75
2022/03/04 06:00:22;;;;;;;6.70;6.00;;;10.50;99.90;;;;;;5077127;28;20206;-75
2022/03/04 06:02:49;;;;;;;5.60;4.97;;;10.50;1.00;;;;;;5071076;28;20198;-75
2022/03/04 06:05:17;;;;;;;6.00;5.40;;;10.50;99.90;;;;;;5074469;28;20206;-76
2022/03/04 06:07:45;;;;;;;7.10;6.40;;;10.50;99.90;;;;;;5077842;28;20271;-75
2022/03/04 06:10:12;;;;;;;5.93;4.83;;;10.50;99.90;;;;;;5084634;28;20234;-75
2022/03/04 06:12:39;;;;;;;5.00;4.50;;;10.50;99.90;;;;;;5073202;28;20268;-74
2022/03/04 06:15:07;;;;;;;6.07;5.43;;;10.40;99.90;;;;;;5087034;28;20261;-75
2022/03/04 06:17:34;;;;;;;5.87;5.13;;;10.50;1.00;;;;;;5076999;28;20210;-76
2022/03/04 06:20:01;;;;;;;6.43;5.10;;;10.50;1.00;;;;;;5082467;28;20214;-76
2022/03/04 06:22:28;;;;;;;5.97;5.37;;;10.50;1.00;;;;;;5085139;28;20210;-76
2022/03/04 06:24:56;;;;;;;5.70;4.60;;;10.50;1.00;;;;;;5073664;28;20263;-76
2022/03/04 06:27:23;;;;;;;6.03;4.93;;;10.50;99.90;;;;;;5075221;28;20745;-76
2022/03/04 06:29:50;;;;;;;4.97;4.47;;;10.50;99.90;;;;;;5076337;28;20260;-76
2022/03/04 06:32:17;;;;;;;5.00;4.50;;;10.50;99.90;;;;;;5073215;28;20201;-74
2022/03/04 06:34:44;;;;;;;5.30;4.70;;;10.40;99.90;;;;;;5074824;28;20209;-74
2022/03/04 06:37:12;;;;;;;5.17;4.77;;;10.50;99.90;;;;;;5083380;28;20251;-74
2022/03/04 06:39:39;;;;;;;6.37;5.27;;;10.50;99.90;;;;;;5080793;28;20214;-75
2022/03/04 06:42:08;;;;;;;5.70;4.47;;;10.50;99.90;;;;;;5087803;28;20205;-74
2022/03/04 06:44:35;;;;;;;5.03;4.37;;;10.50;99.90;;;;;;5091100;28;20217;-75
2022/03/04 06:47:02;;;;;;;4.80;4.30;;;10.50;99.90;;;;;;5090461;28;20205;-75
2022/03/04 06:49:29;;;;;;;8.30;3.83;;;10.60;99.90;;;;;;5090565;28;20208;-75
2022/03/04 06:51:56;;;;;;;4.33;3.90;;;10.60;1.00;;;;;;5089897;28;20237;-76
2022/03/04 06:54:23;;;;;;;4.43;4.03;;;10.50;99.90;;;;;;5079715;28;20235;-76
2022/03/04 06:56:50;;;;;;;5.73;4.47;;;10.50;99.90;;;;;;5090455;28;20248;-76
2022/03/04 06:59:19;;;;;;;7.17;3.53;;;10.40;99.90;;;;;;5090747;28;20209;-74
2022/03/04 07:01:46;;;;;;;6.57;4.70;;;10.40;99.90;;;;;;5075830;28;20237;-74
2022/03/04 07:04:13;;;;;;;5.97;4.07;;;10.40;99.90;;;;;;5090833;28;20545;-74
2022/03/04 07:06:40;;;;;;;4.27;3.80;;;10.40;99.90;;;;;;5090768;28;20213;-75
2022/03/04 07:09:07;;;;;;;5.07;4.57;;;10.40;99.90;;;;;;5090800;28;20197;-74
2022/03/04 07:11:34;;;;;;;4.07;3.47;;;10.40;99.90;;;;;;5077249;28;20237;-74
2022/03/04 07:14:01;;;;;;;4.77;4.03;;;10.40;99.90;;;;;;5070092;28;20751;-74
2022/03/04 07:16:30;;;;;;;4.53;4.07;;;10.40;99.90;;;;;;5070318;28;20202;-75
2022/03/04 07:18:57;;;;;;;4.77;4.03;;;10.40;99.90;;;;;;5067575;28;20206;-74
2022/03/04 07:21:24;;;;;;;5.07;4.57;;;10.50;99.90;;;;;;5070598;28;20206;-75
2022/03/04 07:23:51;;;;;;;4.87;4.33;;;10.50;99.90;;;;;;5070130;28;20202;-75
2022/03/04 07:26:18;;;;;;;4.03;3.63;;;10.40;99.90;;;;;;5070460;28;20205;-74
2022/03/04 07:28:45;;;;;;;4.33;3.93;;;10.60;99.90;;;;;;5070294;28;20206;-74
2022/03/04 07:31:12;;;;;;;4.93;4.17;;;10.50;1.00;;;;;;5073446;28;20234;-76
2022/03/04 07:33:40;;;;;;;4.37;3.97;;;10.40;99.90;;;;;;5073075;28;20222;-74
2022/03/04 07:36:07;;;;;;;5.87;4.40;;;10.40;99.90;;;;;;5084368;28;20246;-74
2022/03/04 07:38:35;;;;;;;4.90;4.40;;;10.40;99.90;;;;;;5085354;28;20205;-74
2022/03/04 07:41:01;;;;;;;6.53;3.80;;;10.40;1.00;;;;;;5084261;28;20205;-74
2022/03/04 07:43:28;;;;;;;5.43;3.67;;;10.40;1.00;;;;;;5084890;28;20379;-74
2022/03/04 07:45:56;;;;;;;6.50;4.57;;;10.30;1.00;;;;;;5083929;28;20739;-74
2022/03/04 07:48:22;;;;;;;6.17;4.97;;;10.30;1.00;;;;;;5079717;28;20259;-74
2022/03/04 07:50:51;;;;;;;4.10;3.70;;;10.30;1.00;;;;;;5078232;28;20221;-74
2022/03/04 07:53:18;;;;;;;6.73;3.93;;;10.30;1.00;;;;;;5076342;28;20658;-76
2022/03/04 07:55:45;;;;;;;5.93;4.53;;;10.30;1.00;;;;;;5073658;28;20206;-75
2022/03/04 07:58:12;;;;;;;9.00;4.87;;;10.30;1.00;;;;;;5077876;28;20251;-75
2022/03/04 08:00:39;;;;;;;5.33;4.83;;;10.30;1.00;;;;;;5073838;28;20557;-75
2022/03/04 08:03:06;;;;;;;6.07;4.43;;;10.30;1.00;;;;;;5074083;28;20210;-75
2022/03/04 08:05:33;;;;;;;5.00;4.00;;;10.40;1.00;;;;;;5080362;28;20263;-75
2022/03/04 08:08:02;;;;;;;4.77;4.23;;;10.40;1.00;;;;;;5076964;28;20690;-75
2022/03/04 08:10:29;;;;;;;4.67;4.10;;;10.40;1.00;;;;;;5073563;28;20214;-76
2022/03/04 08:12:56;;;;;;;6.00;4.17;;;10.40;1.00;;;;;;5072301;28;20202;-75
2022/03/04 08:15:23;;;;;;;5.47;4.00;;;10.40;1.00;;;;;;5086706;28;20205;-75
2022/03/04 08:17:50;;;;;;;4.83;3.27;;;10.40;1.00;;;;;;5083191;28;20267;-75
2022/03/04 08:20:17;;;;;;;6.47;4.67;;;10.40;1.00;;;;;;5073272;28;20206;-74
2022/03/04 08:22:44;;;;;;;4.07;3.50;;;10.40;1.00;;;;;;5072516;28;20210;-73
2022/03/04 08:25:12;;;;;;;5.10;4.60;;;10.40;1.00;;;;;;5069602;28;20202;-75
2022/03/04 08:27:39;;;;;;;5.00;3.87;;;10.40;1.00;;;;;;5072575;28;20619;-73
2022/03/04 08:30:09;;;;;;;4.90;4.33;;;10.30;1.00;;;;;;5085699;28;20201;-73
2022/03/04 08:32:36;;;;;;;4.17;3.77;;;10.40;99.90;;;;;;5077695;28;20279;-73
2022/03/04 08:35:04;;;;;;;3.30;3.00;;;10.50;99.90;;;;;;5072532;28;20202;-73
2022/03/04 08:37:31;;;;;;;6.57;4.70;;;10.60;99.90;;;;;;5072390;28;20203;-73
2022/03/04 08:39:58;;;;;;;4.83;3.80;;;10.50;99.90;;;;;;5083151;28;20627;-73
2022/03/04 08:42:26;;;;;;;6.10;3.50;;;10.50;99.90;;;;;;5093019;28;20282;-72
2022/03/04 08:44:54;;;;;;;4.27;3.10;;;10.50;99.90;;;;;;5087426;28;20260;-71
2022/03/04 08:47:21;;;;;;;3.40;3.10;;;10.50;99.90;;;;;;5073129;28;20206;-71
2022/03/04 08:49:48;;;;;;;4.70;3.20;;;10.60;99.90;;;;;;5072854;28;20252;-72
2022/03/04 08:52:15;;;;;;;4.03;3.20;;;10.60;99.90;;;;;;5073066;28;20241;-73
2022/03/04 08:54:42;;;;;;;3.17;2.50;;;10.60;99.90;;;;;;5073059;28;20256;-72
2022/03/04 08:57:10;;;;;;;6.20;2.40;;;10.60;99.90;;;;;;5073085;28;20247;-71
2022/03/04 08:59:39;;;;;;;2.67;1.73;;;10.60;99.90;;;;;;5072208;28;20214;-73
2022/03/04 09:02:06;;;;;;;2.40;2.20;;;10.60;99.90;;;;;;5072892;28;20228;-70
2022/03/04 09:04:33;;;;;;;1.93;1.70;;;10.50;99.90;;;;;;5073086;28;20206;-71
2022/03/04 09:07:00;;;;;;;1.77;0.87;;;10.50;99.90;;;;;;5078379;28;20270;-71
2022/03/04 09:09:28;;;;;;;1.27;1.17;;;10.40;99.90;;;;;;5079664;28;20198;-72
2022/03/04 09:11:55;;;;;;;1.10;1.00;;;10.40;99.90;;;;;;5081122;28;20237;-73
2022/03/04 09:14:23;;;;;;;1.57;1.10;;;10.40;99.90;;;;;;5086493;28;20201;-72
2022/03/04 09:16:51;;;;;;;2.47;1.13;;;10.30;99.90;;;;;;5079275;28;20206;-73
2022/03/04 09:19:19;;;;;;;0.80;0.77;;;10.30;99.90;;;;;;5069489;28;20283;-78
2022/03/04 09:21:47;;;;;;;2.20;1.20;;;10.30;1.00;;;;;;5070483;28;20669;-77
2022/03/04 09:24:14;;;;;;;3.17;1.60;;;10.40;1.00;;;;;;5070815;28;20213;-77
2022/03/04 09:26:41;;;;;;;2.67;1.80;;;10.50;99.90;;;;;;5071223;28;20206;-75
2022/03/04 09:29:09;;;;;;;2.20;1.83;;;10.50;1.00;;;;;;5070157;28;21930;-75
2022/03/04 09:31:36;;;;;;;1.00;0.90;;;10.50;1.00;;;;;;5069052;28;20234;-77
2022/03/04 09:34:04;;;;;;;2.73;1.63;;;10.40;1.00;;;;;;5070216;28;20206;-76
2022/03/04 09:36:31;;;;;;;2.53;2.10;;;10.40;1.00;;;;;;5071116;28;20264;-75
2022/03/04 09:38:59;;;;;;;1.67;1.20;;;10.40;1.00;;;;;;5071190;28;20297;-76
2022/03/04 09:41:26;;;;;;;4.47;4.00;;;10.40;1.00;;;;;;5069842;28;20212;-75
2022/03/04 09:43:55;;;;;;;9.53;6.73;;;10.40;1.00;;;;;;5071388;28;20214;-77
2022/03/04 09:46:22;;;;;;;3.50;2.57;;;10.40;1.00;;;;;;5072021;28;20202;-78
2022/03/04 09:48:49;;;;;;;1.47;1.37;;;10.40;1.00;;;;;;5071536;28;20218;-75
2022/03/04 09:51:18;;;;;;;1.30;0.90;;;10.40;1.00;;;;;;5071629;28;20793;-76
2022/03/04 09:53:45;;;;;;;2.00;1.37;;;10.30;1.00;;;;;;5070652;28;20210;-76
2022/03/04 09:56:13;;;;;;;6.30;2.90;;;10.30;1.00;;;;;;5071843;28;20286;-77
2022/03/04 09:58:40;;;;;;;2.93;2.17;;;10.40;1.00;;;;;;5071657;28;20207;-73
2022/03/04 10:01:11;;;;;;;5.20;2.40;;;10.40;1.00;;;;;;5071760;28;20260;-75
2022/03/04 10:03:46;;;;;;;2.73;1.53;;;10.30;1.00;;;;;;5070822;28;20198;-72
2022/03/04 10:06:14;;;;;;;1.70;1.20;;;10.30;1.00;;;;;;5069169;28;20210;-75
2022/03/04 10:08:44;;;;;;;1.77;1.20;;;10.30;1.00;;;;;;5071495;28;20220;-74
2022/03/04 10:11:13;;;;;;;1.80;1.20;;;10.30;1.00;;;;;;5071633;28;20237;-74
2022/03/04 10:13:45;;;;;;;1.43;0.90;;;10.40;1.00;;;;;;5071110;28;20202;-71
2022/03/04 10:16:13;;;;;;;2.37;1.37;;;10.40;1.00;;;;;;5073130;28;20272;-74
2022/03/04 10:18:41;;;;;;;1.87;1.67;;;10.40;1.00;;;;;;5073389;28;20649;-75
2022/03/04 10:21:08;;;;;;;4.07;2.83;;;10.50;1.00;;;;;;5071032;28;20206;-74
2022/03/04 10:23:35;;;;;;;2.80;1.23;;;10.40;1.00;;;;;;5069555;28;20213;-74
2022/03/04 10:26:03;;;;;;;1.97;1.27;;;10.40;1.00;;;;;;5070095;28;20208;-76
2022/03/04 10:28:32;;;;;;;3.30;1.20;;;10.50;1.00;;;;;;5070958;28;20206;-74
2022/03/04 10:30:59;;;;;;;1.60;1.10;;;10.60;1.00;;;;;;5071037;28;20627;-75
2022/03/04 10:33:28;;;;;;;1.53;1.00;;;10.50;1.00;;;;;;5071284;28;20202;-74
2022/03/04 10:36:13;;;;;;;2.77;1.90;;;10.50;1.00;;;;;;5070783;28;20564;-75
2022/03/04 10:38:42;;;;;;;3.43;1.30;;;10.60;1.00;;;;;;5070341;28;20264;-73
2022/03/04 10:41:24;;;;;;;2.33;1.73;;;10.50;1.00;;;;;;5070881;28;20248;-72
2022/03/04 10:43:52;;;;;;;1.60;1.33;;;10.40;1.00;;;;;;5062455;28;20209;-75
2022/03/04 10:46:19;;;;;;;1.83;0.70;;;10.50;1.00;;;;;;5082213;28;20206;-73
2022/03/04 10:48:53;;;;;;;1.73;1.17;;;10.50;1.00;;;;;;5085743;28;20559;-75
2022/03/04 10:51:36;;;;;;;1.10;1.00;;;10.60;1.00;;;;;;5090959;28;20236;-70
2022/03/04 10:54:13;;;;;;;1.07;1.00;;;10.60;1.00;;;;;;5089934;28;20571;-74
2022/03/04 10:56:54;;;;;;;2.30;1.70;;;10.70;1.00;;;;;;5079618;28;20267;-72
2022/03/04 10:59:21;;;;;;;1.77;1.13;;;10.60;1.00;;;;;;5069268;28;20670;-71
2022/03/04 11:01:49;;;;;;;1.40;0.87;;;10.70;1.00;;;;;;5090375;28;20286;-71
2022/03/04 11:04:18;;;;;;;0.70;0.60;;;10.80;1.00;;;;;;5085025;28;20210;-74
2022/03/04 11:06:47;;;;;;;2.43;1.40;;;10.80;1.00;;;;;;5090503;28;20201;-78
2022/03/04 11:09:14;;;;;;;2.37;1.40;;;10.70;1.00;;;;;;5090522;28;20673;-73
2022/03/04 11:11:43;;;;;;;1.97;1.40;;;10.70;1.00;;;;;;5089950;28;20290;-73
2022/03/04 11:14:12;;;;;;;1.57;1.33;;;10.80;1.00;;;;;;5090195;28;20201;-78
2022/03/04 11:16:40;;;;;;;1.67;1.13;;;10.80;1.00;;;;;;5090771;28;20216;-72
2022/03/04 11:19:08;;;;;;;2.83;1.30;;;10.90;1.00;;;;;;5088264;28;20205;-79
2022/03/04 11:21:35;;;;;;;2.20;1.30;;;10.90;1.00;;;;;;5078043;28;20217;-77
2022/03/04 11:24:02;;;;;;;1.33;1.07;;;10.90;1.00;;;;;;5086281;28;20699;-76
2022/03/04 11:26:32;;;;;;;2.37;1.70;;;10.80;1.00;;;;;;5085237;28;20232;-82
2022/03/04 11:29:02;;;;;;;1.10;0.90;;;10.60;1.00;;;;;;5083457;28;20210;-77
2022/03/04 11:31:31;;;;;;;1.70;1.47;;;10.50;1.00;;;;;;5084488;28;20359;-75
2022/03/04 11:34:00;;;;;;;2.57;1.23;;;10.50;1.00;;;;;;5068697;28;20259;-76
2022/03/04 11:36:29;;;;;;;1.30;1.10;;;10.60;1.00;;;;;;5070294;28;20202;-71
2022/03/04 11:39:03;;;;;;;1.77;1.57;;;10.60;1.00;;;;;;5061111;28;20235;-80
2022/03/04 11:41:55;;;;;;;2.27;1.43;;;10.50;1.00;;;;;;5090295;28;20685;-79
2022/03/04 11:44:24;;;;;;;2.03;1.73;;;10.50;1.00;;;;;;5086737;28;20205;-72
2022/03/04 11:46:59;;;;;;;1.83;1.63;;;10.60;1.00;;;;;;5090303;28;20629;-75
2022/03/04 11:49:47;;;;;;;2.17;1.70;;;10.60;1.00;;;;;;5063635;28;20208;-73
2022/03/04 11:52:27;;;;;;;2.73;1.77;;;10.70;1.00;;;;;;5086133;28;20260;-75
2022/03/04 11:55:26;;;;;;;3.60;1.97;;;10.70;1.00;;;;;;5068822;28;20586;-75
2022/03/04 11:58:06;;;;;;;2.37;1.50;;;10.60;1.00;;;;;;5076826;28;20202;-77
2022/03/04 12:00:38;;;;;;;2.07;1.17;;;10.70;1.00;;;;;;5084318;28;20202;-76
2022/03/04 12:03:19;;;;;;;1.23;0.87;;;10.60;1.00;;;;;;5070209;28;20203;-74
2022/03/04 12:05:48;;;;;;;1.97;1.13;;;10.60;1.00;;;;;;5074918;28;20214;-72
2022/03/04 12:08:15;;;;;;;3.80;1.37;;;10.60;1.00;;;;;;5088506;28;20205;-74
2022/03/04 12:10:52;;;;;;;1.50;1.17;;;10.70;1.00;;;;;;5087418;28;20209;-78
2022/03/04 12:13:22;;;;;;;2.00;1.40;;;10.70;1.00;;;;;;5089857;28;20267;-75
2022/03/04 12:16:00;;;;;;;2.40;2.07;;;10.70;1.00;;;;;;5079994;28;20202;-72
2022/03/04 12:18:32;;;;;;;2.10;1.40;;;10.90;1.00;;;;;;5064717;28;20197;-74
2022/03/04 12:21:26;;;;;;;1.30;1.20;;;11.00;1.00;;;;;;5074957;28;20202;-74
2022/03/04 12:24:04;;;;;;;0.90;0.80;;;11.00;1.00;;;;;;5071994;28;20662;-76
2022/03/04 12:26:36;;;;;;;1.70;1.10;;;10.90;1.00;;;;;;5073271;28;20251;-75
2022/03/04 12:29:06;;;;;;;1.80;0.80;;;10.90;1.00;;;;;;5072895;28;20213;-72
2022/03/04 12:31:39;;;;;;;0.77;0.77;;;10.60;1.00;;;;;;5073958;28;20241;-73
2022/03/04 12:34:16;;;;;;;1.30;0.90;;;10.70;1.00;;;;;;5076264;28;20217;-73
2022/03/04 12:36:44;;;;;;;1.00;0.80;;;10.80;1.00;;;;;;5053530;28;20206;-72
2022/03/04 12:39:11;;;;;;;1.13;0.70;;;10.70;1.00;;;;;;5073072;28;20640;-73
2022/03/04 12:41:39;;;;;;;1.37;0.90;;;10.70;1.00;;;;;;5073669;28;20210;-71
2022/03/04 12:44:07;;;;;;;0.80;0.80;;;10.60;1.00;;;;;;5072994;28;20298;-72
2022/03/04 12:46:36;;;;;;;1.27;1.03;;;10.50;1.00;;;;;;5073600;28;20213;-72
2022/03/04 12:49:04;;;;;;;0.87;0.80;;;10.40;1.00;;;;;;5075562;28;20202;-74
2022/03/04 12:51:35;;;;;;;1.23;1.10;;;10.50;1.00;;;;;;5081760;28;20323;-81
2022/03/04 12:54:03;;;;;;;1.30;0.60;;;10.40;1.00;;;;;;5076049;28;20735;-75
2022/03/04 12:56:31;;;;;;;0.80;0.50;;;10.40;1.00;;;;;;5074335;28;20267;-77
2022/03/04 12:58:59;;;;;;;0.30;0.30;;;10.30;1.00;;;;;;5066227;28;20263;-78